Time,TemperatureF,DewpointF,PressureIn,WindDirection,WindDirectionDegrees,WindSpeedMPH,WindSpeedGustMPH,Humidity,HourlyPrecipIn,Conditions,Clouds,dailyrainin,SoftwareType,DateUTC
2013-01-24 00:02:00,23.4,21.4,30.33,ENE,62,0.0,2.0,92,0.00,,---,0.00,VWS V14.01,2013-01-24 08:02:00,
2013-01-24 00:17:00,22.1,19.9,30.33,ENE,62,0.0,0.0,91,0.00,,---,0.00,VWS V14.01,2013-01-24 08:17:00,
2013-01-24 00:32:00,21.6,19.6,30.33,ENE,62,0.0,1.0,92,0.00,,---,0.00,VWS V14.01,2013-01-24 08:32:00,
2013-01-24 00:47:00,21.7,20.0,30.34,ENE,62,0.0,1.0,93,0.00,,---,0.00,VWS V14.01,2013-01-24 08:47:00,
2013-01-24 01:02:00,21.5,19.8,30.34,ENE,62,0.0,0.0,93,0.00,,---,0.00,VWS V14.01,2013-01-24 09:02:00,
2013-01-24 01:17:00,22.4,20.9,30.36,ENE,64,0.0,0.0,94,0.00,,---,0.00,VWS V14.01,2013-01-24 09:17:00,
2013-01-24 01:32:00,21.9,20.2,30.36,ENE,65,0.0,1.0,93,0.00,,---,0.00,VWS V14.01,2013-01-24 09:32:00,
2013-01-24 01:47:00,21.5,19.8,30.36,ENE,65,0.0,1.0,93,0.00,,---,0.00,VWS V14.01,2013-01-24 09:47:00,
2013-01-24 02:02:00,22.9,21.7,30.38,ENE,65,0.0,1.0,95,0.00,,---,0.00,VWS V14.01,2013-01-24 10:02:00,
2013-01-24 02:17:00,22.8,21.1,30.39,ESE,104,0.0,1.0,93,0.00,,---,0.00,VWS V14.01,2013-01-24 10:17:00,
2013-01-24 02:32:00,21.8,20.1,30.39,East,86,0.0,1.0,93,0.00,,---,0.00,VWS V14.01,2013-01-24 10:32:00,
2013-01-24 02:47:00,21.9,20.4,30.40,East,86,0.0,0.0,94,0.00,,---,0.00,VWS V14.01,2013-01-24 10:47:00,
2013-01-24 03:02:00,22.5,21.0,30.40,East,86,0.0,1.0,94,0.00,,---,0.00,VWS V14.01,2013-01-24 11:02:00,
2013-01-24 03:17:00,21.9,20.2,30.41,East,86,0.0,0.0,93,0.00,,---,0.00,VWS V14.01,2013-01-24 11:17:00,
2013-01-24 03:32:00,22.3,20.8,30.42,East,86,0.0,0.0,94,0.00,,---,0.00,VWS V14.01,2013-01-24 11:32:00,
2013-01-24 03:47:00,22.2,20.7,30.43,East,88,0.0,1.0,94,0.00,,---,0.00,VWS V14.01,2013-01-24 11:47:00,
2013-01-24 04:02:00,22.3,20.8,30.44,East,90,0.0,1.0,94,0.00,,---,0.00,VWS V14.01,2013-01-24 12:02:00,
2013-01-24 04:17:00,22.1,20.4,30.45,East,90,0.0,0.0,93,0.00,,---,0.00,VWS V14.01,2013-01-24 12:17:00,
2013-01-24 04:32:00,22.5,20.8,30.45,East,90,0.0,0.0,93,0.00,,---,0.00,VWS V14.01,2013-01-24 12:32:00,
2013-01-24 04:47:00,22.8,21.3,30.45,East,90,0.0,0.0,94,0.00,,---,0.00,VWS V14.01,2013-01-24 12:47:00,
2013-01-24 05:02:00,22.7,21.0,30.45,East,90,0.0,0.0,93,0.00,,---,0.00,VWS V14.01,2013-01-24 13:02:00,
2013-01-24 05:17:00,22.9,21.2,30.46,East,90,0.0,0.0,93,0.00,,---,0.00,VWS V14.01,2013-01-24 13:17:00,
2013-01-24 05:32:00,23.1,21.4,30.46,East,90,0.0,0.0,93,0.00,,---,0.00,VWS V14.01,2013-01-24 13:32:00,
2013-01-24 05:47:00,22.8,21.1,30.47,East,90,0.0,0.0,93,0.00,,---,0.00,VWS V14.01,2013-01-24 13:47:00,
2013-01-24 06:02:00,23.0,21.3,30.47,East,90,0.0,0.0,93,0.00,,---,0.00,VWS V14.01,2013-01-24 14:02:00,
2013-01-24 06:17:00,21.4,19.7,30.48,ENE,65,1.0,3.0,93,0.00,,---,0.00,VWS V14.01,2013-01-24 14:17:00,
2013-01-24 06:32:00,21.8,20.3,30.48,NE,55,0.0,2.0,94,0.00,,---,0.00,VWS V14.01,2013-01-24 14:32:00,
2013-01-24 06:47:00,21.0,19.0,30.49,NE,36,0.0,1.0,92,0.00,,---,0.00,VWS V14.01,2013-01-24 14:47:00,
2013-01-24 07:02:00,21.1,19.6,30.49,NE,36,0.0,1.0,94,0.00,,---,0.00,VWS V14.01,2013-01-24 15:02:00,
2013-01-24 07:17:00,21.6,20.1,30.49,NE,36,0.0,1.0,94,0.00,,---,0.00,VWS V14.01,2013-01-24 15:17:00,
2013-01-24 07:32:00,21.6,19.9,30.50,NNE,28,0.0,1.0,93,0.00,,---,0.00,VWS V14.01,2013-01-24 15:32:00,
2013-01-24 07:47:00,21.8,20.3,30.50,NNE,28,0.0,0.0,94,0.00,,---,0.00,VWS V14.01,2013-01-24 15:47:00,
2013-01-24 08:02:00,21.8,20.1,30.51,ENE,63,1.0,4.0,93,0.00,,---,0.00,VWS V14.01,2013-01-24 16:02:00,
2013-01-24 08:17:00,21.9,20.4,30.51,ENE,62,0.0,1.0,94,0.00,,---,0.00,VWS V14.01,2013-01-24 16:17:00,
2013-01-24 08:32:00,22.4,20.9,30.52,ENE,62,0.0,0.0,94,0.00,,---,0.00,VWS V14.01,2013-01-24 16:32:00,
2013-01-24 08:47:00,22.9,21.7,30.51,ENE,62,0.0,0.0,95,0.00,,---,0.00,VWS V14.01,2013-01-24 16:47:00,
2013-01-24 09:02:00,23.0,21.5,30.53,ENE,62,0.0,1.0,94,0.00,,---,0.00,VWS V14.01,2013-01-24 17:02:00,
2013-01-24 09:17:00,22.6,21.1,30.53,SW,224,3.0,3.0,94,0.00,,---,0.00,VWS V14.01,2013-01-24 17:17:00,
2013-01-24 09:32:00,22.5,21.0,30.52,SW,226,3.0,6.0,94,0.00,,---,0.00,VWS V14.01,2013-01-24 17:32:00,
2013-01-24 09:47:00,22.9,21.4,30.53,SSW,196,2.0,7.0,94,0.00,,---,0.00,VWS V14.01,2013-01-24 17:47:00,
2013-01-24 10:02:00,23.2,21.7,30.54,SW,233,9.0,9.0,94,0.00,,---,0.00,VWS V14.01,2013-01-24 18:02:00,
2013-01-24 10:17:00,23.5,22.0,30.53,SW,225,0.0,10.0,94,0.00,,---,0.00,VWS V14.01,2013-01-24 18:17:00,
2013-01-24 10:32:00,23.8,22.3,30.53,SSW,211,1.0,6.0,94,0.00,,---,0.00,VWS V14.01,2013-01-24 18:32:00,
2013-01-24 10:47:00,24.3,22.8,30.54,SSW,196,1.0,5.0,94,0.00,,---,0.00,VWS V14.01,2013-01-24 18:47:00,
2013-01-24 11:02:00,24.2,22.7,30.54,SW,234,2.0,7.0,94,0.00,,---,0.00,VWS V14.01,2013-01-24 19:02:00,
2013-01-24 11:17:00,24.4,22.9,30.53,SSW,205,0.0,6.0,94,0.00,,---,0.00,VWS V14.01,2013-01-24 19:17:00,
2013-01-24 11:32:00,24.7,22.7,30.53,SW,225,1.0,5.0,92,0.00,,---,0.00,VWS V14.01,2013-01-24 19:32:00,
2013-01-24 11:47:00,24.7,22.5,30.52,WSW,245,3.0,9.0,91,0.00,,---,0.00,VWS V14.01,2013-01-24 19:47:00,
2013-01-24 12:02:00,24.9,22.6,30.51,SSW,211,5.0,10.0,91,0.00,,---,0.00,VWS V14.01,2013-01-24 20:02:00,
2013-01-24 12:17:00,25.2,22.7,30.50,SSW,210,0.0,6.0,90,0.00,,---,0.00,VWS V14.01,2013-01-24 20:17:00,
2013-01-24 12:32:00,25.4,22.9,30.50,SSW,211,2.0,6.0,90,0.00,,---,0.00,VWS V14.01,2013-01-24 20:32:00,
2013-01-24 12:47:00,25.3,22.5,30.50,SW,236,2.0,9.0,89,0.00,,---,0.00,VWS V14.01,2013-01-24 20:47:00,
2013-01-24 13:02:00,25.3,22.8,30.50,SW,229,4.0,6.0,90,0.00,,---,0.00,VWS V14.01,2013-01-24 21:02:00,
2013-01-24 13:17:00,25.5,22.7,30.49,SW,226,5.0,6.0,89,0.00,,---,0.00,VWS V14.01,2013-01-24 21:17:00,
2013-01-24 13:32:00,25.7,22.9,30.48,SW,232,3.0,6.0,89,0.00,,---,0.00,VWS V14.01,2013-01-24 21:32:00,
2013-01-24 13:47:00,25.9,22.8,30.49,SW,214,1.0,5.0,88,0.00,,---,0.00,VWS V14.01,2013-01-24 21:47:00,
2013-01-24 14:02:00,25.9,22.8,30.49,WSW,253,1.0,3.0,88,0.00,,---,0.00,VWS V14.01,2013-01-24 22:02:00,
2013-01-24 14:17:00,26.3,23.0,30.48,West,275,0.0,3.0,87,0.00,,---,0.00,VWS V14.01,2013-01-24 22:17:00,
2013-01-24 14:32:00,26.4,23.1,30.48,WNW,288,0.0,3.0,87,0.00,,---,0.00,VWS V14.01,2013-01-24 22:32:00,
2013-01-24 14:47:00,26.3,23.0,30.48,SW,236,1.0,3.0,87,0.00,,---,0.00,VWS V14.01,2013-01-24 22:47:00,
2013-01-24 15:02:00,26.4,23.1,30.48,NNE,26,0.0,3.0,87,0.00,,---,0.00,VWS V14.01,2013-01-24 23:02:00,
2013-01-24 15:17:00,26.3,22.7,30.48,SW,214,0.0,2.0,86,0.00,,---,0.00,VWS V14.01,2013-01-24 23:17:00,
2013-01-24 15:32:00,26.6,23.3,30.47,SW,214,0.0,1.0,87,0.00,,---,0.00,VWS V14.01,2013-01-24 23:32:00,
2013-01-24 15:47:00,26.4,22.8,30.48,SW,215,0.0,1.0,86,0.00,,---,0.00,VWS V14.01,2013-01-24 23:47:00,
2013-01-24 16:02:00,26.4,23.1,30.47,SW,217,0.0,1.0,87,0.00,,---,0.00,VWS V14.01,2013-01-25 00:02:00,
2013-01-24 16:17:00,26.6,23.0,30.46,NE,38,0.0,2.0,86,0.00,,---,0.00,VWS V14.01,2013-01-25 00:17:00,
2013-01-24 16:32:00,26.4,22.8,30.46,North,349,1.0,3.0,86,0.00,,---,0.00,VWS V14.01,2013-01-25 00:32:00,
2013-01-24 16:47:00,26.1,22.8,30.47,SW,225,0.0,4.0,87,0.00,,---,0.00,VWS V14.01,2013-01-25 00:47:00,
2013-01-24 17:02:00,26.0,22.7,30.47,ENE,65,0.0,2.0,87,0.00,,---,0.00,VWS V14.01,2013-01-25 01:02:00,
2013-01-24 17:17:00,26.0,22.7,30.48,South,184,1.0,2.0,87,0.00,,---,0.00,VWS V14.01,2013-01-25 01:17:00,
2013-01-24 17:32:00,25.9,22.6,30.47,SSW,201,1.0,5.0,87,0.00,,---,0.00,VWS V14.01,2013-01-25 01:32:00,
2013-01-24 17:47:00,25.9,22.6,30.47,SW,224,0.0,1.0,87,0.00,,---,0.00,VWS V14.01,2013-01-25 01:47:00,
2013-01-24 18:02:00,25.7,22.6,30.47,SW,228,0.0,2.0,88,0.00,,---,0.00,VWS V14.01,2013-01-25 02:02:00,
2013-01-24 18:17:00,25.7,22.6,30.47,NNE,27,0.0,1.0,88,0.00,,---,0.00,VWS V14.01,2013-01-25 02:17:00,
2013-01-24 18:32:00,25.7,22.9,30.47,ENE,65,2.0,3.0,89,0.00,,---,0.00,VWS V14.01,2013-01-25 02:32:00,
2013-01-24 18:47:00,25.7,22.9,30.47,NE,50,0.0,2.0,89,0.00,,---,0.00,VWS V14.01,2013-01-25 02:47:00,
2013-01-24 19:02:00,25.8,23.0,30.46,NE,49,0.0,0.0,89,0.00,,---,0.00,VWS V14.01,2013-01-25 03:02:00,
2013-01-24 19:17:00,25.8,23.0,30.45,NE,50,0.0,0.0,89,0.00,,---,0.00,VWS V14.01,2013-01-25 03:17:00,
2013-01-24 19:32:00,25.8,22.7,30.46,NE,49,0.0,1.0,88,0.00,,---,0.00,VWS V14.01,2013-01-25 03:32:00,
2013-01-24 19:47:00,25.8,23.0,30.46,NE,49,0.0,1.0,89,0.00,,---,0.00,VWS V14.01,2013-01-25 03:47:00,
2013-01-24 20:02:00,25.6,22.8,30.45,NE,49,0.0,1.0,89,0.00,,---,0.00,VWS V14.01,2013-01-25 04:02:00,
2013-01-24 20:17:00,25.5,22.7,30.45,NE,50,0.0,1.0,89,0.00,,---,0.00,VWS V14.01,2013-01-25 04:17:00,
2013-01-24 20:32:00,25.3,23.0,30.44,NE,53,0.0,2.0,91,0.00,,---,0.00,VWS V14.01,2013-01-25 04:32:00,
2013-01-24 20:47:00,25.3,22.8,30.44,ENE,62,2.0,3.0,90,0.00,,---,0.00,VWS V14.01,2013-01-25 04:47:00,
2013-01-24 21:02:00,25.5,22.7,30.44,ENE,64,0.0,2.0,89,0.00,,---,0.00,VWS V14.01,2013-01-25 05:02:00,
2013-01-24 21:17:00,25.5,23.0,30.44,ENE,65,0.0,0.0,90,0.00,,---,0.00,VWS V14.01,2013-01-25 05:17:00,
2013-01-24 21:32:00,25.5,23.0,30.44,ENE,65,0.0,0.0,90,0.00,,---,0.00,VWS V14.01,2013-01-25 05:32:00,
2013-01-24 21:47:00,25.2,23.0,30.43,ENE,63,0.0,1.0,91,0.00,,---,0.00,VWS V14.01,2013-01-25 05:47:00,
2013-01-24 22:02:00,24.9,22.9,30.43,ENE,59,0.0,2.0,92,0.00,,---,0.00,VWS V14.01,2013-01-25 06:02:00,
2013-01-24 22:17:00,24.8,22.5,30.43,ENE,59,0.0,1.0,91,0.00,,---,0.00,VWS V14.01,2013-01-25 06:17:00,
2013-01-24 22:32:00,24.8,22.5,30.43,ENE,59,0.0,0.0,91,0.00,,---,0.00,VWS V14.01,2013-01-25 06:32:00,
2013-01-24 22:47:00,24.6,22.6,30.42,ENE,57,0.0,2.0,92,0.00,,---,0.00,VWS V14.01,2013-01-25 06:47:00,
2013-01-24 23:02:00,24.6,22.6,30.42,NE,45,0.0,3.0,92,0.00,,---,0.00,VWS V14.01,2013-01-25 07:02:00,
2013-01-24 23:17:00,24.5,22.5,30.43,NE,46,0.0,4.0,92,0.00,,---,0.00,VWS V14.01,2013-01-25 07:17:00,
2013-01-24 23:32:00,24.6,22.6,30.43,NE,53,0.0,1.0,92,0.00,,---,0.00,VWS V14.01,2013-01-25 07:32:00,
2013-01-24 23:47:00,24.5,22.5,30.42,NE,53,0.0,1.0,92,0.00,,---,0.00,VWS V14.01,2013-01-25 07:47:00,